TimeIST,TemperatureF,Dew PointF,Humidity,Sea Level PressureIn,VisibilityMPH,Wind Direction,Wind SpeedMPH,Gust SpeedMPH,PrecipitationIn,Events,Conditions,WindDirDegrees,DateUTC
2:00 AM,68.0,44.6,43,29.89,1.2,Variable,5.8,-,N/A,,Smoke,0,2012-11-07 20:30:00
2:30 AM,68,45,33,29.86,1,North,4.6,,,,Smoke,0,2012-11-07 21:00:00
5:00 AM,60.8,44.6,55,29.89,1.2,Calm,Calm,-,N/A,,Smoke,0,2012-11-07 23:30:00
5:30 AM,61,50,57,29.86,1,Calm,Calm,,,,Smoke,,2012-11-08 00:00:00
6:00 AM,60.8,44.6,55,29.89,1.2,Calm,Calm,-,N/A,,Smoke,0,2012-11-08 00:30:00
8:00 AM,64.4,48.2,56,29.92,0.6,Calm,Calm,-,N/A,,Smoke,0,2012-11-08 02:30:00
8:30 AM,66,52,51,29.90,1,Calm,Calm,,,,Smoke,,2012-11-08 03:00:00
10:00 AM,77.0,50.0,39,29.98,0.6,Calm,Calm,-,N/A,,Smoke,0,2012-11-08 04:30:00
11:00 AM,80.6,51.8,37,29.95,0.8,SW,5.8,-,N/A,,Smoke,230,2012-11-08 05:30:00
11:30 AM,83,49,20,29.87,1,West,4.6,,,,Smoke,270,2012-11-08 06:00:00
12:00 PM,84.2,50.0,30,29.95,1.1,West,6.9,-,N/A,,Smoke,270,2012-11-08 06:30:00
1:00 PM,84.2,50.0,30,29.92,1.6,Variable,5.8,-,N/A,,Smoke,0,2012-11-08 07:30:00
2:30 PM,84,36,10,29.81,1,NW,5.8,,,,Smoke,320,2012-11-08 09:00:00
3:00 PM,84.2,50.0,30,29.86,1.9,Variable,5.8,-,N/A,,Smoke,0,2012-11-08 09:30:00
4:00 PM,84.2,35.6,18,29.86,1.9,WNW,8.1,-,N/A,,Smoke,290,2012-11-08 10:30:00
4:30 PM,82.4,35.6,19,29.86,1.9,WNW,5.8,-,N/A,,Smoke,300,2012-11-08 11:00:00
5:00 PM,80.6,35.6,20,29.86,1.6,Calm,Calm,-,N/A,,Smoke,0,2012-11-08 11:30:00
6:00 PM,75.2,37.4,25,29.89,1.6,Calm,Calm,-,N/A,,Smoke,0,2012-11-08 12:30:00
6:30 PM,73.4,37.4,27,29.89,1.1,Calm,Calm,-,N/A,,Smoke,0,2012-11-08 13:00:00
7:30 PM,68.0,37.4,33,29.92,0.8,Calm,Calm,-,N/A,,Smoke,0,2012-11-08 14:00:00
8:00 PM,69.8,37.4,31,29.92,0.8,Calm,Calm,-,N/A,,Smoke,0,2012-11-08 14:30:00
8:30 PM,68,48,37,29.88,1,Calm,Calm,,,,Smoke,,2012-11-08 15:00:00
9:00 PM,68.0,48.2,49,29.92,0.9,Calm,Calm,-,N/A,,Smoke,0,2012-11-08 15:30:00
9:30 PM,66.2,48.2,52,29.92,0.9,Calm,Calm,-,N/A,,Smoke,0,2012-11-08 16:00:00
11:30 PM,65,48,44,29.89,1,Calm,Calm,,,,Smoke,,2012-11-08 18:00:00